Time;durP1;ratioP1;P1;durP2;ratioP2;P2;SDS_P1;SDS_P2;PMS_P1;PMS_P2;Temp;Humidity;BMP_temperature;BMP_pressure;BME280_temperature;BME280_humidity;BME280_pressure;Samples;Min_cycle;Max_cycle;Signal;HPM_P1;HPM_P2
2021/12/03 00:00:02;;;;;;;2.40;1.40;;;-0.10;99.90;;;;;;4431161;32;20082;-70
2021/12/03 00:02:27;;;;;;;0.30;0.30;;;-0.10;99.90;;;;;;4428120;32;20076;-69
2021/12/03 00:04:53;;;;;;;0.98;0.60;;;-0.20;99.90;;;;;;4431369;32;20526;-69
2021/12/03 00:07:18;;;;;;;0.85;0.85;;;-0.10;99.90;;;;;;4432582;32;20101;-69
2021/12/03 00:09:44;;;;;;;0.40;0.40;;;-0.10;99.90;;;;;;4428654;32;21248;-68
2021/12/03 00:12:10;;;;;;;0.40;0.40;;;-0.20;99.90;;;;;;4433032;32;20482;-69
2021/12/03 00:14:35;;;;;;;0.40;0.40;;;-0.30;99.90;;;;;;4430279;32;20065;-69
2021/12/03 00:17:02;;;;;;;1.33;1.02;;;-0.30;99.90;;;;;;4434771;32;20077;-69
2021/12/03 00:19:28;;;;;;;0.60;0.45;;;-0.30;99.90;;;;;;4433567;32;20161;-68
2021/12/03 00:21:54;;;;;;;0.40;0.40;;;-0.20;99.90;;;;;;4435333;32;20518;-70
2021/12/03 00:24:19;;;;;;;0.40;0.40;;;-0.30;99.90;;;;;;4432653;32;20093;-69
2021/12/03 00:26:45;;;;;;;0.65;0.65;;;-0.30;99.90;;;;;;4430443;32;20097;-69
2021/12/03 00:29:10;;;;;;;0.40;0.40;;;-0.30;99.90;;;;;;4431679;32;20058;-69
2021/12/03 00:31:36;;;;;;;0.40;0.40;;;-0.30;99.90;;;;;;4430817;32;20533;-69
2021/12/03 00:34:03;;;;;;;0.60;0.60;;;-0.30;99.90;;;;;;4428293;32;20068;-69
2021/12/03 00:36:28;;;;;;;0.40;0.40;;;-0.30;99.90;;;;;;4433715;32;20065;-69
2021/12/03 00:38:58;;;;;;;0.37;0.37;;;-0.30;99.90;;;;;;4431246;32;20195;-69
2021/12/03 00:41:25;;;;;;;0.50;0.50;;;-0.30;99.90;;;;;;4429384;32;20163;-69
2021/12/03 00:43:53;;;;;;;0.40;0.40;;;-0.30;99.90;;;;;;4429442;32;20078;-69
2021/12/03 00:46:19;;;;;;;0.32;0.32;;;-0.30;99.90;;;;;;4431695;32;20073;-68
2021/12/03 00:48:47;;;;;;;0.50;0.50;;;-0.30;99.90;;;;;;4436202;32;20306;-69
2021/12/03 00:51:14;;;;;;;0.55;0.55;;;-0.30;99.90;;;;;;4429763;32;20111;-69
2021/12/03 00:53:40;;;;;;;1.00;1.00;;;-0.30;99.90;;;;;;4432572;32;20100;-69
2021/12/03 00:56:08;;;;;;;0.52;0.52;;;-0.30;99.90;;;;;;4431340;32;20120;-69
2021/12/03 00:58:34;;;;;;;0.40;0.40;;;-0.30;99.90;;;;;;4434546;32;20081;-69
2021/12/03 01:00:59;;;;;;;0.40;0.40;;;-0.30;99.90;;;;;;4429296;32;20447;-69
2021/12/03 01:03:25;;;;;;;0.40;0.40;;;-0.30;99.90;;;;;;4427104;32;20128;-69
2021/12/03 01:05:50;;;;;;;0.60;0.60;;;-0.30;99.90;;;;;;4429783;32;20068;-69
2021/12/03 01:08:16;;;;;;;0.30;0.30;;;-0.20;99.90;;;;;;4431680;32;20085;-69
2021/12/03 01:10:42;;;;;;;0.40;0.40;;;-0.20;99.90;;;;;;4428577;32;20104;-69
2021/12/03 01:13:08;;;;;;;0.88;0.85;;;-0.20;99.90;;;;;;4429497;32;20157;-68
2021/12/03 01:15:36;;;;;;;0.47;0.47;;;-0.20;99.90;;;;;;4427448;32;20097;-69
2021/12/03 01:18:03;;;;;;;0.40;0.40;;;-0.20;99.90;;;;;;4431319;32;20454;-69
2021/12/03 01:20:30;;;;;;;0.55;0.55;;;-0.20;99.90;;;;;;4428237;32;20432;-69
2021/12/03 01:22:58;;;;;;;0.60;0.60;;;-0.10;99.90;;;;;;4429782;32;20061;-68
2021/12/03 01:25:25;;;;;;;0.40;0.40;;;-0.10;99.90;;;;;;4428571;32;20081;-70
2021/12/03 01:27:52;;;;;;;0.30;0.30;;;-0.10;99.90;;;;;;4434920;32;20065;-68
2021/12/03 01:30:20;;;;;;;0.60;0.60;;;-0.10;99.90;;;;;;4425591;32;20124;-69
2021/12/03 01:32:46;;;;;;;0.95;0.95;;;-0.10;99.90;;;;;;4428572;32;20530;-69
2021/12/03 01:35:12;;;;;;;0.47;0.47;;;-0.20;99.90;;;;;;4427978;32;20061;-68
2021/12/03 01:37:38;;;;;;;0.50;0.50;;;-0.20;99.90;;;;;;4429973;32;20061;-69
2021/12/03 01:40:06;;;;;;;0.55;0.55;;;-0.10;99.90;;;;;;4428155;32;20065;-69
2021/12/03 01:42:32;;;;;;;0.45;0.45;;;-0.10;99.90;;;;;;4430487;32;20151;-69
2021/12/03 01:44:57;;;;;;;0.40;0.40;;;-0.10;99.90;;;;;;4430692;32;20108;-69
2021/12/03 01:47:23;;;;;;;0.62;0.62;;;0.00;99.90;;;;;;4429600;32;20164;-69
2021/12/03 01:49:49;;;;;;;0.40;0.40;;;-0.10;99.90;;;;;;4431680;32;20383;-69
2021/12/03 01:52:14;;;;;;;0.40;0.40;;;-0.20;99.90;;;;;;4429394;32;20135;-69
2021/12/03 01:54:40;;;;;;;0.40;0.40;;;-0.20;99.90;;;;;;4432065;32;20073;-69
2021/12/03 01:57:06;;;;;;;0.30;0.30;;;-0.10;99.90;;;;;;4432831;32;20061;-69
2021/12/03 01:59:31;;;;;;;0.47;0.47;;;-0.10;99.90;;;;;;4429756;32;20147;-69
2021/12/03 02:01:58;;;;;;;0.40;0.40;;;0.00;99.90;;;;;;4432119;32;20526;-68
2021/12/03 02:04:23;;;;;;;0.50;0.50;;;0.10;99.90;;;;;;4429881;32;20082;-69
2021/12/03 02:06:49;;;;;;;0.60;0.60;;;0.30;99.90;;;;;;4428349;32;20069;-68
2021/12/03 02:09:14;;;;;;;0.50;0.50;;;0.20;99.90;;;;;;4427473;32;20101;-68
2021/12/03 02:11:40;;;;;;;5.50;1.95;;;0.10;99.90;;;;;;4429412;32;20124;-68
2021/12/03 02:14:06;;;;;;;0.30;0.30;;;0.00;99.90;;;;;;4429257;32;20065;-69
2021/12/03 02:16:32;;;;;;;0.47;0.47;;;-0.10;99.90;;;;;;4428427;32;20815;-68
2021/12/03 02:18:57;;;;;;;1.73;1.02;;;0.00;99.90;;;;;;4429195;32;20088;-68
2021/12/03 02:21:23;;;;;;;0.95;0.90;;;0.00;99.90;;;;;;4429246;32;20057;-68
2021/12/03 02:23:49;;;;;;;6.62;0.85;;;0.00;99.90;;;;;;4429187;32;20388;-68
2021/12/03 02:26:15;;;;;;;0.40;0.40;;;-0.10;99.90;;;;;;4429090;32;20129;-68
2021/12/03 02:28:45;;;;;;;0.40;0.40;;;-0.10;99.90;;;;;;4430712;32;20069;-68
2021/12/03 02:31:12;;;;;;;0.30;0.30;;;-0.10;99.90;;;;;;4430367;32;20102;-68
2021/12/03 02:33:37;;;;;;;0.40;0.40;;;-0.20;99.90;;;;;;4429701;32;20448;-68
2021/12/03 02:36:05;;;;;;;0.35;0.35;;;-0.20;99.90;;;;;;4428543;32;20082;-68
2021/12/03 02:38:30;;;;;;;4.95;0.62;;;-0.30;99.90;;;;;;4429588;32;20476;-68
2021/12/03 02:40:57;;;;;;;0.37;0.37;;;-0.30;99.90;;;;;;4428264;32;20102;-68
2021/12/03 02:43:24;;;;;;;0.50;0.50;;;-0.50;99.90;;;;;;4430624;32;20101;-68
2021/12/03 02:45:51;;;;;;;0.62;0.62;;;-0.50;99.90;;;;;;4429111;32;20089;-68
2021/12/03 02:48:17;;;;;;;0.55;0.55;;;-0.50;99.90;;;;;;4432115;32;20104;-69
2021/12/03 02:50:43;;;;;;;0.50;0.50;;;-0.40;99.90;;;;;;4430742;32;20057;-69
2021/12/03 02:53:08;;;;;;;0.30;0.30;;;-0.40;99.90;;;;;;4432143;32;20128;-68
2021/12/03 02:55:34;;;;;;;0.30;0.30;;;-0.60;99.90;;;;;;4432896;32;20176;-68
2021/12/03 02:58:00;;;;;;;0.55;0.55;;;-0.50;99.90;;;;;;4433429;32;20086;-68
2021/12/03 03:00:27;;;;;;;0.75;0.75;;;-0.60;99.90;;;;;;4428447;32;20553;-68
2021/12/03 03:02:54;;;;;;;0.40;0.40;;;-0.50;99.90;;;;;;4426994;32;20089;-68
2021/12/03 03:05:21;;;;;;;0.30;0.30;;;-0.50;99.90;;;;;;4430510;32;20583;-68
2021/12/03 03:07:48;;;;;;;0.40;0.40;;;-0.30;99.90;;;;;;4429878;32;20101;-68
2021/12/03 03:10:16;;;;;;;0.50;0.50;;;-0.20;99.90;;;;;;4430689;32;20068;-68
2021/12/03 03:12:42;;;;;;;0.40;0.40;;;-0.20;99.90;;;;;;4430013;32;20076;-68
2021/12/03 03:15:10;;;;;;;0.40;0.40;;;-0.30;99.90;;;;;;4429175;32;20451;-69
2021/12/03 03:17:36;;;;;;;0.60;0.60;;;-0.40;99.90;;;;;;4435039;32;20073;-69
2021/12/03 03:20:04;;;;;;;0.60;0.60;;;-0.50;99.90;;;;;;4431653;32;20182;-69
2021/12/03 03:22:30;;;;;;;0.40;0.40;;;-0.40;99.90;;;;;;4433850;32;20081;-69
2021/12/03 03:24:59;;;;;;;0.40;0.40;;;-0.40;99.90;;;;;;4430006;32;20125;-70
2021/12/03 03:27:27;;;;;;;1.17;1.07;;;-0.40;99.90;;;;;;4434466;32;20591;-69
2021/12/03 03:29:53;;;;;;;0.35;0.35;;;-0.40;99.90;;;;;;4429460;32;20123;-69
2021/12/03 03:32:20;;;;;;;0.40;0.40;;;-0.40;99.90;;;;;;4433252;32;20094;-69
2021/12/03 03:34:46;;;;;;;0.32;0.32;;;-0.30;99.90;;;;;;4433268;32;20081;-69
2021/12/03 03:37:12;;;;;;;0.50;0.50;;;-0.30;99.90;;;;;;4431519;32;20563;-69
2021/12/03 03:39:38;;;;;;;0.50;0.50;;;-0.20;99.90;;;;;;4430695;32;20460;-69
2021/12/03 03:42:04;;;;;;;0.40;0.40;;;-0.20;99.90;;;;;;4430862;32;20068;-68
2021/12/03 03:44:29;;;;;;;0.80;0.80;;;-0.20;99.90;;;;;;4435065;32;20057;-69
2021/12/03 03:46:56;;;;;;;1.37;1.27;;;-0.10;99.90;;;;;;4435382;32;20057;-68
2021/12/03 03:49:23;;;;;;;5.57;1.75;;;-0.20;99.90;;;;;;4431105;32;20065;-69
2021/12/03 03:51:50;;;;;;;0.70;0.70;;;-0.20;99.90;;;;;;4432192;32;20072;-69
2021/12/03 03:54:16;;;;;;;0.40;0.40;;;-0.10;99.90;;;;;;4433674;32;20057;-68
2021/12/03 03:56:42;;;;;;;2.83;0.95;;;-0.10;99.90;;;;;;4431683;32;20416;-69
2021/12/03 03:59:08;;;;;;;0.40;0.40;;;-0.20;99.90;;;;;;4430949;32;20081;-69
2021/12/03 04:01:34;;;;;;;0.30;0.30;;;-0.20;99.90;;;;;;4436288;32;20326;-69
2021/12/03 04:03:59;;;;;;;0.40;0.40;;;-0.20;99.90;;;;;;4431863;32;20131;-69
2021/12/03 04:06:25;;;;;;;3.42;1.85;;;-0.20;99.90;;;;;;4430659;32;20098;-69
2021/12/03 04:08:50;;;;;;;0.40;0.40;;;-0.30;99.90;;;;;;4433003;32;20522;-70
2021/12/03 04:11:20;;;;;;;0.50;0.50;;;-0.30;99.90;;;;;;4428852;32;20529;-70
2021/12/03 04:13:46;;;;;;;0.40;0.40;;;-0.30;99.90;;;;;;4429795;32;20118;-70
2021/12/03 04:16:11;;;;;;;0.40;0.40;;;-0.40;99.90;;;;;;4437508;32;20101;-68
2021/12/03 04:18:37;;;;;;;0.40;0.40;;;-0.40;99.90;;;;;;4432615;32;20113;-71
2021/12/03 04:21:04;;;;;;;0.50;0.50;;;-0.40;99.90;;;;;;4429629;32;20081;-69
2021/12/03 04:23:29;;;;;;;0.45;0.45;;;-0.30;99.90;;;;;;4433454;32;20060;-69
2021/12/03 04:25:55;;;;;;;1.30;1.20;;;-0.30;99.90;;;;;;4432405;32;20073;-70
2021/12/03 04:28:22;;;;;;;0.47;0.47;;;-0.30;99.90;;;;;;4433551;32;20598;-69
2021/12/03 04:30:49;;;;;;;0.40;0.40;;;-0.30;99.90;;;;;;4430842;32;20103;-69
2021/12/03 04:33:14;;;;;;;0.37;0.37;;;-0.30;99.90;;;;;;4427139;32;109180;-69
2021/12/03 04:35:40;;;;;;;0.40;0.40;;;-0.30;99.90;;;;;;4429874;32;20065;-69
2021/12/03 04:38:06;;;;;;;0.30;0.30;;;-0.30;99.90;;;;;;4435900;32;20076;-69
2021/12/03 04:40:33;;;;;;;0.40;0.40;;;-0.30;99.90;;;;;;4431134;32;20670;-68
2021/12/03 04:42:59;;;;;;;0.30;0.30;;;-0.30;99.90;;;;;;4428643;32;20073;-70
2021/12/03 04:45:29;;;;;;;0.30;0.30;;;-0.30;99.90;;;;;;4430801;32;20147;-69
2021/12/03 04:47:56;;;;;;;0.40;0.40;;;-0.20;99.90;;;;;;4432009;32;20096;-69
2021/12/03 04:50:24;;;;;;;0.55;0.55;;;-0.30;99.90;;;;;;4431968;32;20525;-69
2021/12/03 04:52:49;;;;;;;18.85;1.95;;;-0.30;99.90;;;;;;4436785;32;20080;-69
2021/12/03 04:55:15;;;;;;;0.50;0.50;;;-0.20;99.90;;;;;;4432813;32;20093;-69
2021/12/03 04:57:41;;;;;;;0.40;0.40;;;-0.20;99.90;;;;;;4433300;32;20547;-69
2021/12/03 05:00:12;;;;;;;0.40;0.40;;;-0.20;99.90;;;;;;4429636;32;20506;-69
2021/12/03 05:02:37;;;;;;;;;;;-0.10;99.90;;;;;;4431837;32;20142;-69
2021/12/03 05:05:05;;;;;;;7.57;1.85;;;0.00;99.90;;;;;;4431747;32;20383;-68
2021/12/03 05:07:53;;;;;;;0.40;0.40;;;0.00;99.90;;;;;;4436512;32;20049;-68
2021/12/03 05:10:17;;;;;;;0.40;0.40;;;0.10;99.90;;;;;;4425812;32;20114;-69
2021/12/03 05:12:42;;;;;;;0.40;0.40;;;0.00;99.90;;;;;;4429209;32;20053;-68
2021/12/03 05:15:08;;;;;;;0.40;0.40;;;0.10;99.90;;;;;;4432540;32;20175;-69
2021/12/03 05:17:34;;;;;;;0.37;0.37;;;0.10;99.90;;;;;;4434140;32;20104;-69
2021/12/03 05:19:59;;;;;;;0.50;0.50;;;0.20;99.90;;;;;;4430375;32;20532;-68
2021/12/03 05:22:25;;;;;;;0.60;0.60;;;0.20;99.90;;;;;;4422273;32;20560;-68
2021/12/03 05:24:51;;;;;;;0.65;0.65;;;0.20;99.90;;;;;;4424324;32;20068;-68
2021/12/03 05:27:18;;;;;;;0.40;0.40;;;0.10;99.90;;;;;;4432182;32;20139;-69
2021/12/03 05:29:46;;;;;;;0.40;0.40;;;0.00;99.90;;;;;;4429152;32;20117;-69
2021/12/03 05:32:13;;;;;;;0.40;0.40;;;0.00;99.90;;;;;;4430287;32;20405;-69
2021/12/03 05:34:38;;;;;;;0.30;0.30;;;0.00;99.90;;;;;;4429876;32;20072;-68
2021/12/03 05:37:06;;;;;;;0.40;0.40;;;0.00;99.90;;;;;;4432372;32;20498;-69
2021/12/03 05:39:33;;;;;;;0.40;0.40;;;0.00;99.90;;;;;;4431561;32;20098;-69
2021/12/03 05:41:59;;;;;;;0.40;0.40;;;0.00;99.90;;;;;;4429557;32;20081;-69
2021/12/03 05:44:25;;;;;;;0.40;0.40;;;0.10;99.90;;;;;;4434024;32;20171;-69
2021/12/03 05:46:51;;;;;;;0.40;0.40;;;0.20;99.90;;;;;;4432832;32;20065;-69
2021/12/03 05:49:17;;;;;;;0.40;0.40;;;0.20;99.90;;;;;;4431522;32;20074;-69
2021/12/03 05:51:43;;;;;;;0.30;0.30;;;0.20;99.90;;;;;;4429082;32;20140;-69
2021/12/03 05:54:09;;;;;;;0.40;0.40;;;0.20;99.90;;;;;;4432621;32;20061;-69
2021/12/03 05:56:35;;;;;;;0.60;0.60;;;0.20;99.90;;;;;;4431571;32;20139;-68
2021/12/03 05:59:00;;;;;;;0.40;0.40;;;0.20;99.90;;;;;;4429300;32;20537;-69
2021/12/03 06:01:26;;;;;;;0.60;0.60;;;0.20;99.90;;;;;;4421399;32;20093;-69
2021/12/03 06:03:51;;;;;;;0.32;0.32;;;0.20;99.90;;;;;;4423952;32;20433;-69
2021/12/03 06:06:17;;;;;;;0.40;0.40;;;0.30;99.90;;;;;;4427911;32;20408;-69
2021/12/03 06:08:43;;;;;;;0.55;0.55;;;0.30;99.90;;;;;;4426901;32;20527;-69
2021/12/03 06:11:09;;;;;;;0.40;0.40;;;0.30;99.90;;;;;;4426774;32;20526;-68
2021/12/03 06:13:39;;;;;;;0.30;0.30;;;0.30;99.90;;;;;;4430205;32;20128;-68
2021/12/03 06:16:06;;;;;;;0.45;0.45;;;0.40;99.90;;;;;;4430561;32;20135;-69
2021/12/03 06:18:33;;;;;;;0.45;0.45;;;0.40;99.90;;;;;;4411352;32;20090;-69
2021/12/03 06:20:59;;;;;;;1.37;1.27;;;0.40;99.90;;;;;;4424083;32;20143;-68
2021/12/03 06:23:25;;;;;;;0.35;0.35;;;0.40;99.90;;;;;;4429790;32;20119;-69
2021/12/03 06:25:51;;;;;;;2.28;1.10;;;0.40;99.90;;;;;;4425343;32;20230;-69
2021/12/03 06:28:16;;;;;;;0.40;0.40;;;0.50;99.90;;;;;;4413663;32;20491;-68
2021/12/03 06:30:42;;;;;;;0.40;0.40;;;0.50;99.90;;;;;;4412836;32;20085;-69
2021/12/03 06:33:08;;;;;;;0.40;0.40;;;0.60;99.90;;;;;;4406313;32;20142;-68
2021/12/03 06:35:34;;;;;;;1.65;0.85;;;0.60;99.90;;;;;;4424653;32;20061;-69
2021/12/03 06:38:00;;;;;;;0.40;0.40;;;0.70;99.90;;;;;;4421438;32;20501;-68
2021/12/03 06:40:28;;;;;;;0.40;0.40;;;0.70;99.90;;;;;;4422518;32;20065;-69
2021/12/03 06:42:55;;;;;;;0.40;0.40;;;0.80;99.90;;;;;;4424082;32;20132;-70
2021/12/03 06:45:20;;;;;;;0.30;0.30;;;0.70;99.90;;;;;;4418594;32;20084;-68
2021/12/03 06:47:47;;;;;;;1.05;1.00;;;0.80;99.90;;;;;;4420696;32;20130;-69
2021/12/03 06:50:17;;;;;;;0.50;0.50;;;0.80;99.90;;;;;;4421815;32;20160;-70
2021/12/03 06:52:46;;;;;;;0.40;0.40;;;0.80;99.90;;;;;;4418692;32;20100;-69
2021/12/03 06:55:14;;;;;;;33.97;1.30;;;0.80;99.90;;;;;;4419411;32;21305;-69
2021/12/03 06:57:44;;;;;;;0.50;0.50;;;0.90;99.90;;;;;;4414848;32;20113;-70
2021/12/03 07:00:11;;;;;;;0.40;0.40;;;0.90;99.90;;;;;;4415773;32;20098;-69
2021/12/03 07:02:36;;;;;;;0.60;0.60;;;0.90;99.90;;;;;;4415472;32;20143;-68
2021/12/03 07:05:04;;;;;;;0.40;0.40;;;0.90;99.90;;;;;;4411012;32;20101;-68
2021/12/03 07:07:30;;;;;;;0.40;0.40;;;0.90;99.90;;;;;;4409070;32;20074;-70
2021/12/03 07:09:56;;;;;;;0.50;0.50;;;0.90;99.90;;;;;;4406604;32;20065;-70
2021/12/03 07:12:21;;;;;;;0.30;0.30;;;0.90;99.90;;;;;;4414910;32;20122;-68
2021/12/03 07:14:47;;;;;;;0.47;0.47;;;1.00;99.90;;;;;;4412521;32;20105;-68
2021/12/03 07:17:13;;;;;;;0.65;0.65;;;1.00;99.90;;;;;;4410487;32;20819;-70
2021/12/03 07:19:39;;;;;;;0.88;0.88;;;1.00;99.90;;;;;;4413887;32;20159;-69
2021/12/03 07:22:04;;;;;;;0.75;0.75;;;1.00;99.90;;;;;;4415794;32;20595;-69
2021/12/03 07:24:31;;;;;;;0.40;0.40;;;1.10;99.90;;;;;;4420044;32;20081;-71
2021/12/03 07:26:56;;;;;;;0.43;0.43;;;1.10;99.90;;;;;;4414428;32;20101;-69
2021/12/03 07:29:22;;;;;;;0.40;0.40;;;1.10;99.90;;;;;;4413823;32;20165;-68
2021/12/03 07:31:48;;;;;;;0.40;0.40;;;1.10;99.90;;;;;;4414809;32;20638;-69
2021/12/03 07:34:15;;;;;;;1.35;1.25;;;1.20;99.90;;;;;;4414018;32;21928;-69
2021/12/03 07:36:41;;;;;;;0.40;0.40;;;1.30;99.90;;;;;;4414007;32;20512;-70
2021/12/03 07:39:07;;;;;;;0.50;0.50;;;1.40;99.90;;;;;;4412192;32;20089;-69
2021/12/03 07:41:35;;;;;;;0.47;0.47;;;1.40;99.90;;;;;;4410169;32;20288;-70
2021/12/03 07:44:01;;;;;;;0.40;0.40;;;1.40;99.90;;;;;;4414416;32;20061;-69
2021/12/03 07:46:26;;;;;;;1.15;0.65;;;1.40;99.90;;;;;;4406256;32;20101;-69
2021/12/03 07:48:52;;;;;;;0.32;0.32;;;1.50;99.90;;;;;;4410365;32;20873;-69
2021/12/03 07:51:18;;;;;;;2.45;1.65;;;1.50;99.90;;;;;;4413034;32;20105;-70
2021/12/03 07:53:44;;;;;;;0.32;0.32;;;1.60;99.90;;;;;;4414527;32;20160;-69
2021/12/03 07:56:10;;;;;;;0.52;0.52;;;1.60;99.90;;;;;;4407950;32;20176;-69
2021/12/03 07:58:36;;;;;;;0.30;0.30;;;1.60;99.90;;;;;;4415637;32;20821;-69
2021/12/03 08:01:02;;;;;;;0.73;0.73;;;1.60;99.90;;;;;;4420537;32;20197;-68
2021/12/03 08:03:28;;;;;;;0.82;0.82;;;1.60;99.90;;;;;;4412545;32;20081;-70
2021/12/03 08:05:54;;;;;;;0.40;0.40;;;1.60;99.90;;;;;;4418845;32;20227;-69
2021/12/03 08:08:24;;;;;;;0.30;0.30;;;1.60;99.90;;;;;;4417619;32;20086;-69
2021/12/03 08:10:51;;;;;;;0.50;0.50;;;1.60;99.90;;;;;;4414320;32;20164;-69
2021/12/03 08:13:16;;;;;;;0.40;0.40;;;1.60;99.90;;;;;;4412421;32;20422;-68
2021/12/03 08:15:42;;;;;;;0.40;0.40;;;1.60;99.90;;;;;;4412713;32;20118;-69
2021/12/03 08:18:07;;;;;;;0.40;0.40;;;1.60;99.90;;;;;;4410849;32;20487;-69
2021/12/03 08:20:33;;;;;;;0.40;0.40;;;1.60;99.90;;;;;;4413330;32;20100;-69
2021/12/03 08:22:59;;;;;;;0.40;0.40;;;1.60;99.90;;;;;;4408437;32;20089;-70
2021/12/03 08:25:26;;;;;;;0.75;0.57;;;1.60;99.90;;;;;;4412830;32;20094;-69
2021/12/03 08:27:53;;;;;;;0.35;0.35;;;1.60;99.90;;;;;;4411873;32;20132;-69
2021/12/03 08:30:18;;;;;;;0.55;0.55;;;1.70;99.90;;;;;;4410422;32;20563;-69
2021/12/03 08:32:44;;;;;;;0.30;0.30;;;1.70;99.90;;;;;;4409110;32;20420;-69
2021/12/03 08:35:10;;;;;;;0.50;0.50;;;1.60;99.90;;;;;;4409129;32;20240;-69
2021/12/03 08:37:37;;;;;;;0.50;0.50;;;1.70;99.90;;;;;;4416805;32;20792;-69
2021/12/03 08:40:04;;;;;;;0.40;0.40;;;1.70;99.90;;;;;;4413039;32;20070;-69
2021/12/03 08:42:29;;;;;;;0.32;0.32;;;1.80;99.90;;;;;;4414652;32;20141;-69
2021/12/03 08:44:55;;;;;;;0.32;0.32;;;1.80;99.90;;;;;;4416601;32;20534;-69
2021/12/03 08:47:20;;;;;;;0.40;0.40;;;1.90;99.90;;;;;;4415161;32;20106;-68
2021/12/03 08:49:55;;;;;;;1.55;1.42;;;2.00;99.90;;;;;;4411045;32;20085;-69
2021/12/03 08:52:28;;;;;;;0.30;0.30;;;2.00;99.90;;;;;;4410592;32;21008;-68
2021/12/03 08:54:55;;;;;;;0.50;0.50;;;2.00;99.90;;;;;;4406204;32;20070;-68
2021/12/03 08:57:29;;;;;;;0.40;0.40;;;2.20;99.90;;;;;;4410394;32;20109;-68
2021/12/03 09:00:00;;;;;;;0.52;0.52;;;2.10;99.90;;;;;;4405655;32;20109;-68
2021/12/03 09:02:26;;;;;;;0.98;0.75;;;2.20;99.90;;;;;;4414297;32;20094;-68
2021/12/03 09:04:51;;;;;;;0.30;0.30;;;2.30;99.90;;;;;;4420716;32;20385;-68
2021/12/03 09:07:17;;;;;;;0.47;0.47;;;2.30;99.90;;;;;;4413704;32;20105;-68
2021/12/03 09:09:43;;;;;;;0.50;0.50;;;2.30;99.90;;;;;;4414945;32;20159;-68
2021/12/03 09:12:10;;;;;;;0.50;0.50;;;2.40;99.90;;;;;;4415829;32;20087;-68
2021/12/03 09:14:41;;;;;;;0.30;0.30;;;2.40;99.90;;;;;;4415804;32;20223;-68
2021/12/03 09:17:21;;;;;;;0.95;0.47;;;2.40;99.90;;;;;;4416081;32;20110;-68
2021/12/03 09:22:29;;;;;;;0.35;0.35;;;2.50;99.90;;;;;;4407985;32;20099;-67
2021/12/03 09:24:55;;;;;;;0.35;0.35;;;2.60;99.90;;;;;;4410840;32;20147;-67
2021/12/03 09:27:21;;;;;;;0.43;0.43;;;2.70;99.90;;;;;;4403754;32;20113;-67
2021/12/03 09:29:48;;;;;;;0.30;0.30;;;2.80;99.90;;;;;;4405192;32;20080;-67
2021/12/03 09:32:21;;;;;;;0.88;0.80;;;3.00;99.90;;;;;;4407533;32;21481;-68
2021/12/03 09:34:47;;;;;;;0.30;0.30;;;3.00;99.90;;;;;;4406362;32;20105;-68
2021/12/03 09:37:12;;;;;;;0.30;0.30;;;3.00;99.90;;;;;;4400352;32;20102;-68
2021/12/03 09:39:41;;;;;;;0.45;0.45;;;3.10;99.90;;;;;;4406648;32;20183;-68
2021/12/03 09:42:07;;;;;;;0.93;0.70;;;3.10;99.90;;;;;;4412659;32;20065;-68
2021/12/03 09:44:33;;;;;;;0.30;0.30;;;3.10;99.90;;;;;;4410364;32;20168;-68
2021/12/03 09:47:00;;;;;;;0.40;0.40;;;3.20;99.90;;;;;;4405724;32;20109;-68
2021/12/03 09:49:33;;;;;;;0.37;0.37;;;3.30;99.90;;;;;;4410029;32;20065;-68
2021/12/03 09:53:18;;;;;;;0.30;0.30;;;3.40;99.90;;;;;;4416785;32;20085;-68
2021/12/03 09:54:49;;;;;;;0.45;0.45;;;3.50;99.90;;;;;;4407679;32;20089;-69
2021/12/03 09:57:23;;;;;;;0.30;0.30;;;3.70;99.90;;;;;;4417033;32;20808;-67
2021/12/03 10:03:40;;;;;;;0.43;0.43;;;3.80;99.90;;;;;;4398960;32;20097;-68
2021/12/03 10:08:02;;;;;;;0.30;0.30;;;3.90;99.90;;;;;;4383486;32;20102;-69
2021/12/03 10:12:00;;;;;;;1.65;0.88;;;4.10;99.90;;;;;;4392684;32;20312;-69
2021/12/03 10:17:49;;;;;;;0.40;0.40;;;4.20;99.90;;;;;;4404605;32;20085;-71
2021/12/03 10:20:10;;;;;;;0.40;0.40;;;4.20;99.90;;;;;;4385248;32;20085;-70
2021/12/03 10:24:14;;;;;;;0.95;0.95;;;4.20;99.90;;;;;;4396490;32;20147;-70
2021/12/03 10:28:53;;;;;;;0.40;0.40;;;4.30;99.90;;;;;;4394422;32;20409;-69
2021/12/03 10:32:40;;;;;;;0.30;0.30;;;4.30;99.90;;;;;;4399407;32;20089;-69
2021/12/03 10:33:58;;;;;;;0.30;0.30;;;4.40;99.90;;;;;;4400583;32;20089;-69
2021/12/03 10:37:48;;;;;;;0.40;0.40;;;4.30;99.90;;;;;;4412131;32;20159;-70
2021/12/03 10:39:22;;;;;;;0.30;0.30;;;4.10;99.90;;;;;;4403833;32;20078;-69
2021/12/03 10:41:59;;;;;;;0.40;0.40;;;4.10;99.90;;;;;;4410773;32;20392;-69
2021/12/03 10:45:09;;;;;;;1.37;1.27;;;4.20;99.90;;;;;;4412572;32;20293;-68
2021/12/03 10:49:51;;;;;;;0.30;0.30;;;4.40;99.90;;;;;;4407419;32;20093;-69
2021/12/03 10:52:22;;;;;;;0.30;0.30;;;4.40;99.90;;;;;;4444774;26;20136;-70
2021/12/03 10:56:17;;;;;;;0.30;0.30;;;4.50;99.90;;;;;;4420751;32;20081;-68
2021/12/03 10:57:48;;;;;;;0.50;0.50;;;4.70;99.90;;;;;;4407655;32;20365;-68
2021/12/03 11:01:47;;;;;;;2.15;1.62;;;4.60;99.90;;;;;;4421167;32;20347;-68
2021/12/03 11:04:40;;;;;;;0.82;0.77;;;4.70;99.90;;;;;;4415205;32;20069;-68
2021/12/03 11:15:11;;;;;;;0.30;0.30;;;4.50;99.90;;;;;;4405687;32;20141;-69
2021/12/03 11:19:19;;;;;;;0.30;0.30;;;4.30;99.90;;;;;;4406805;32;20592;-69
2021/12/03 11:26:27;;;;;;;0.30;0.30;;;4.50;99.90;;;;;;4404589;32;20129;-69
2021/12/03 11:28:54;;;;;;;3.10;1.10;;;4.60;99.90;;;;;;4408158;32;20323;-68
2021/12/03 11:39:33;;;;;;;0.43;0.43;;;5.10;99.90;;;;;;4412778;32;20153;-69
2021/12/03 11:42:49;;;;;;;0.50;0.50;;;5.30;99.90;;;;;;4408189;32;20798;-68
2021/12/03 11:47:28;;;;;;;0.57;0.57;;;5.30;99.90;;;;;;4407759;32;20254;-69
2021/12/03 11:49:47;;;;;;;0.40;0.40;;;5.30;99.90;;;;;;4405060;32;20148;-68
2021/12/03 12:03:44;;;;;;;0.45;0.45;;;4.80;99.90;;;;;;4397361;32;20085;-69
2021/12/03 12:05:24;;;;;;;0.32;0.32;;;4.80;99.90;;;;;;4395213;32;20080;-69
2021/12/03 12:09:10;;;;;;;0.85;0.85;;;4.80;99.90;;;;;;4393721;32;20085;-68
2021/12/03 12:12:47;;;;;;;1.12;0.75;;;4.70;99.90;;;;;;4393581;32;20190;-69
2021/12/03 12:15:08;;;;;;;0.30;0.30;;;4.70;99.90;;;;;;4393034;32;20097;-68
2021/12/03 12:17:21;;;;;;;2.17;0.60;;;4.50;99.90;;;;;;4399520;32;20136;-68
2021/12/03 12:23:06;;;;;;;0.30;0.30;;;4.80;99.90;;;;;;4408292;32;20122;-69
2021/12/03 12:26:07;;;;;;;0.40;0.40;;;5.10;99.90;;;;;;4394312;32;20671;-68
2021/12/03 12:29:34;;;;;;;0.73;0.73;;;5.10;99.90;;;;;;4398207;32;20085;-70
2021/12/03 12:32:42;;;;;;;0.37;0.37;;;5.10;99.90;;;;;;4391135;32;20116;-69
2021/12/03 12:34:50;;;;;;;0.30;0.30;;;5.00;99.90;;;;;;4391149;32;20917;-70
2021/12/03 12:36:53;;;;;;;0.40;0.40;;;4.90;99.90;;;;;;4387202;32;20498;-69
2021/12/03 12:39:36;;;;;;;1.83;0.77;;;4.80;99.90;;;;;;4399455;32;20093;-69
2021/12/03 12:42:58;;;;;;;0.40;0.40;;;4.50;99.90;;;;;;4384658;32;20109;-69
2021/12/03 12:44:40;;;;;;;0.30;0.30;;;4.40;99.90;;;;;;4381159;32;20143;-68
2021/12/03 12:55:54;;;;;;;0.50;0.50;;;4.30;99.90;;;;;;4380383;32;20407;-69
2021/12/03 13:08:04;;;;;;;0.40;0.40;;;4.20;99.90;;;;;;4394567;32;20089;-69
2021/12/03 13:12:00;;;;;;;0.40;0.40;;;4.20;99.90;;;;;;4403961;32;20089;-69
2021/12/03 13:19:17;;;;;;;0.40;0.40;;;4.20;99.90;;;;;;4391641;32;20085;-69
2021/12/03 13:28:25;;;;;;;0.65;0.65;;;4.00;99.90;;;;;;4396050;32;20077;-71
2021/12/03 13:41:54;;;;;;;0.50;0.50;;;3.80;99.90;;;;;;4402199;32;20050;-70
2021/12/03 13:43:40;;;;;;;0.37;0.37;;;3.90;99.90;;;;;;4395369;32;20081;-70
2021/12/03 13:56:27;;;;;;;0.47;0.47;;;3.80;99.90;;;;;;4413058;32;20084;-71
2021/12/03 14:02:02;;;;;;;0.62;0.62;;;3.70;99.90;;;;;;4400704;32;20498;-69
2021/12/03 14:06:27;;;;;;;0.55;0.55;;;3.70;99.90;;;;;;4411838;32;20100;-70
2021/12/03 14:09:58;;;;;;;2.60;1.23;;;3.80;99.90;;;;;;4401218;32;20127;-69
2021/12/03 14:12:05;;;;;;;0.50;0.50;;;3.70;99.90;;;;;;4401179;32;20143;-69
2021/12/03 14:18:59;;;;;;;0.80;0.62;;;3.70;99.90;;;;;;4400186;32;20082;-69
2021/12/03 14:22:07;;;;;;;0.45;0.45;;;3.70;99.90;;;;;;4402117;32;20554;-69
2021/12/03 14:27:35;;;;;;;0.45;0.45;;;3.50;99.90;;;;;;4401888;32;19979;-70
2021/12/03 14:34:40;;;;;;;0.43;0.43;;;3.40;99.90;;;;;;4401666;32;20835;-69
2021/12/03 14:35:12;;;;;;;0.40;0.40;;;3.40;99.90;;;;;;4414127;32;20136;-69
2021/12/03 14:37:09;;;;;;;0.85;0.85;;;3.50;99.90;;;;;;4401500;32;20076;-69
2021/12/03 14:39:44;;;;;;;0.50;0.50;;;3.30;99.90;;;;;;4400130;32;20152;-69
2021/12/03 14:42:26;;;;;;;1.15;0.93;;;3.40;99.90;;;;;;4395836;32;20452;-69
2021/12/03 14:45:00;;;;;;;0.50;0.50;;;3.40;99.90;;;;;;4414160;32;20098;-69
2021/12/03 14:52:09;;;;;;;0.60;0.60;;;3.20;99.90;;;;;;4410554;32;20767;-69
2021/12/03 14:53:12;;;;;;;0.50;0.50;;;3.20;99.90;;;;;;4406356;32;20189;-70
2021/12/03 14:55:38;;;;;;;0.50;0.50;;;3.30;99.90;;;;;;4412701;32;20411;-69
2021/12/03 14:58:09;;;;;;;0.50;0.50;;;3.40;99.90;;;;;;4412745;32;20069;-69
2021/12/03 15:03:21;;;;;;;2.72;1.17;;;3.40;99.90;;;;;;4414108;32;20089;-69
2021/12/03 15:06:01;;;;;;;0.57;0.57;;;3.30;99.90;;;;;;4417066;32;20432;-69
2021/12/03 15:08:37;;;;;;;0.75;0.75;;;3.30;99.90;;;;;;4419113;32;20081;-70
2021/12/03 15:11:36;;;;;;;0.80;0.60;;;3.30;99.90;;;;;;4416221;32;20058;-69